Time;durP1;ratioP1;P1;durP2;ratioP2;P2;SDS_P1;SDS_P2;PMS_P1;PMS_P2;Temp;Humidity;BMP_temperature;BMP_pressure;BME280_temperature;BME280_humidity;BME280_pressure;Samples;Min_cycle;Max_cycle;Signal;HPM_P1;HPM_P2
2022/07/28 00:01:59;;;;;;;8.23;2.40;;;;;;;14.43;73.79;101789.38;5025069;28;20041;-73
2022/07/28 00:04:25;;;;;;;6.35;2.42;;;;;;;14.39;73.27;101786.03;5032532;28;20043;-73
2022/07/28 00:06:50;;;;;;;7.20;2.70;;;;;;;14.39;75.56;101780.63;5032906;28;20108;-73
2022/07/28 00:09:16;;;;;;;10.32;2.67;;;;;;;14.37;72.58;101782.59;5030282;28;20025;-73
2022/07/28 00:11:41;;;;;;;9.27;2.75;;;;;;;14.38;75.25;101778.91;5031577;28;20040;-73
2022/07/28 00:14:06;;;;;;;8.95;2.83;;;;;;;14.34;73.44;101785.53;5020621;28;20028;-73
2022/07/28 00:16:31;;;;;;;12.13;2.65;;;;;;;14.30;74.20;101786.72;5033219;28;20056;-73
2022/07/28 00:18:57;;;;;;;8.45;2.40;;;;;;;14.31;73.33;101791.16;5022813;28;20033;-73
2022/07/28 00:21:23;;;;;;;5.93;2.20;;;;;;;14.29;73.18;101783.16;5024149;28;20029;-73
2022/07/28 00:23:48;;;;;;;5.90;2.47;;;;;;;14.28;73.52;101780.56;5014415;28;20030;-73
2022/07/28 00:26:13;;;;;;;11.80;2.60;;;;;;;14.26;71.80;101783.41;5026708;28;20029;-73
2022/07/28 00:28:38;;;;;;;5.32;2.00;;;;;;;14.24;72.42;101779.91;5019949;28;20506;-73
2022/07/28 00:31:05;;;;;;;8.93;3.20;;;;;;;14.26;70.74;101782.50;5025893;28;20021;-73
2022/07/28 00:33:30;;;;;;;7.35;2.55;;;;;;;14.23;72.06;101782.75;5030739;28;20084;-73
2022/07/28 00:35:55;;;;;;;6.72;2.65;;;;;;;14.19;73.37;101781.22;5014200;28;20038;-73
2022/07/28 00:38:20;;;;;;;5.65;2.33;;;;;;;14.12;71.41;101787.09;5012748;28;20103;-73
2022/07/28 00:43:29;;;;;;;9.55;2.85;;;;;;;14.10;73.26;101782.78;5014966;28;20048;-73
2022/07/28 00:45:55;;;;;;;9.18;2.88;;;;;;;14.06;71.98;101789.41;5026807;28;20485;-73
2022/07/28 00:48:20;;;;;;;9.02;2.38;;;;;;;14.07;72.53;101783.88;5017206;28;20037;-73
2022/07/28 00:50:45;;;;;;;8.48;2.70;;;;;;;14.07;72.57;101777.59;5021332;28;20079;-73
2022/07/28 00:53:11;;;;;;;9.43;2.45;;;;;;;14.05;73.38;101769.59;5030720;28;20029;-73
2022/07/28 00:55:38;;;;;;;12.65;2.83;;;;;;;14.03;72.71;101757.19;5019397;28;20117;-73
2022/07/28 00:58:04;;;;;;;7.20;2.47;;;;;;;14.00;72.56;101760.97;5028928;28;20025;-73
2022/07/28 01:00:29;;;;;;;6.80;2.55;;;;;;;13.98;73.19;101762.91;5029440;28;20025;-74
2022/07/28 01:02:55;;;;;;;7.07;2.30;;;;;;;13.97;74.21;101772.88;5023160;28;20080;-74
2022/07/28 01:05:20;;;;;;;8.15;2.30;;;;;;;13.93;73.82;101768.66;5017211;28;20029;-74
2022/07/28 01:08:04;;;;;;;10.18;2.80;;;;;;;13.91;72.71;101769.75;5031171;28;20124;-74
2022/07/28 01:10:52;;;;;;;10.25;2.83;;;;;;;13.90;71.87;101765.34;5027218;28;20022;-74
2022/07/28 01:13:48;;;;;;;10.38;2.90;;;;;;;13.85;72.96;101771.09;5014042;28;20038;-74
2022/07/28 01:16:14;;;;;;;13.23;2.85;;;;;;;13.81;73.04;101773.13;5031009;28;20477;-74
2022/07/28 01:18:56;;;;;;;14.07;2.80;;;;;;;13.78;71.94;101767.94;5025304;28;20040;-74
2022/07/28 01:21:31;;;;;;;13.75;3.20;;;;;;;13.76;73.11;101763.63;5015913;28;20057;-74
2022/07/28 01:24:20;;;;;;;5.78;2.53;;;;;;;13.73;72.61;101762.00;5020398;28;20113;-74
2022/07/28 01:26:54;;;;;;;7.00;2.45;;;;;;;13.66;73.58;101762.56;5018543;28;20412;-74
2022/07/28 01:29:56;;;;;;;6.78;2.60;;;;;;;13.64;72.43;101768.91;5027316;28;20045;-74
2022/07/28 01:32:25;;;;;;;10.32;2.83;;;;;;;13.58;73.29;101760.41;5026850;28;20034;-74
2022/07/28 01:34:53;;;;;;;10.45;3.08;;;;;;;13.57;72.78;101753.28;5021109;28;20152;-74
2022/07/28 01:37:26;;;;;;;11.93;2.78;;;;;;;13.56;72.21;101755.13;5025810;28;20095;-74
2022/07/28 01:39:56;;;;;;;8.95;2.90;;;;;;;13.55;73.91;101755.22;5029032;28;20025;-74
2022/07/28 01:42:25;;;;;;;10.27;2.75;;;;;;;13.52;73.44;101750.06;5023577;28;20500;-74
2022/07/28 01:44:54;;;;;;;9.38;2.58;;;;;;;13.51;74.31;101748.31;5012951;28;20193;-74
2022/07/28 01:47:22;;;;;;;8.48;2.83;;;;;;;13.46;72.59;101745.94;5016657;28;20113;-74
2022/07/28 01:49:49;;;;;;;9.38;2.88;;;;;;;13.45;74.33;101744.22;5013848;28;20112;-74
2022/07/28 01:52:17;;;;;;;11.77;3.55;;;;;;;13.38;72.97;101743.81;5023128;28;20063;-74
2022/07/28 01:54:45;;;;;;;6.53;2.40;;;;;;;13.37;74.29;101742.06;5016155;28;20128;-74
2022/07/28 01:57:13;;;;;;;10.77;3.30;;;;;;;13.35;74.40;101738.59;5027428;28;20079;-74
2022/07/28 01:59:40;;;;;;;7.57;3.05;;;;;;;13.29;74.11;101739.88;5012696;28;20033;-74
2022/07/28 02:02:07;;;;;;;8.18;3.15;;;;;;;13.24;74.55;101733.94;5013187;28;20030;-74
2022/07/28 02:04:35;;;;;;;10.15;3.08;;;;;;;13.22;74.87;101737.69;5027343;28;20401;-74
2022/07/28 02:07:02;;;;;;;10.68;3.00;;;;;;;13.18;75.12;101734.38;5011392;28;20045;-74
2022/07/28 02:09:29;;;;;;;10.13;3.30;;;;;;;13.15;74.67;101733.69;5016049;28;20021;-74
2022/07/28 02:11:55;;;;;;;9.02;3.00;;;;;;;13.16;75.39;101725.50;5031289;28;20060;-74
2022/07/28 02:14:23;;;;;;;12.43;3.78;;;;;;;13.12;74.07;101732.09;5030593;28;20060;-74
2022/07/28 02:16:57;;;;;;;7.70;2.92;;;;;;;13.11;74.56;101730.38;5016516;28;20030;-74
2022/07/28 02:19:23;;;;;;;10.02;3.15;;;;;;;13.11;73.94;101733.91;5016192;28;20025;-74
2022/07/28 02:21:50;;;;;;;12.65;3.88;;;;;;;13.09;74.99;101732.31;5019733;28;20029;-74
2022/07/28 02:24:18;;;;;;;10.88;3.25;;;;;;;13.04;74.37;101723.69;5026699;28;20397;-74
2022/07/28 02:26:58;;;;;;;11.48;3.17;;;;;;;13.01;74.51;101735.53;5023287;28;20022;-74
2022/07/28 02:29:25;;;;;;;12.30;3.55;;;;;;;12.98;75.50;101724.97;5018106;28;20050;-74
2022/07/28 02:31:55;;;;;;;9.75;3.03;;;;;;;12.90;74.39;101728.19;5026403;28;20021;-74
2022/07/28 02:34:23;;;;;;;9.40;2.85;;;;;;;12.88;74.94;101727.41;5027735;28;20030;-74
2022/07/28 02:36:57;;;;;;;10.05;3.10;;;;;;;12.89;74.86;101731.00;5015450;28;20494;-74
2022/07/28 02:39:29;;;;;;;11.48;3.17;;;;;;;12.87;74.77;101728.41;5013394;28;20026;-74
2022/07/28 02:42:03;;;;;;;10.60;3.45;;;;;;;12.85;74.96;101719.53;5023837;28;20029;-74
2022/07/28 02:44:40;;;;;;;9.77;2.95;;;;;;;12.83;76.28;101726.88;5019715;28;20030;-74
2022/07/28 02:47:09;;;;;;;7.90;3.08;;;;;;;12.82;74.26;101727.00;5014085;28;20049;-74
2022/07/28 02:49:36;;;;;;;7.32;2.80;;;;;;;12.85;74.64;101724.94;5028893;28;20025;-74
2022/07/28 02:52:03;;;;;;;6.95;2.85;;;;;;;12.85;74.36;101722.25;5024699;28;20040;-74
2022/07/28 02:54:30;;;;;;;11.43;3.40;;;;;;;12.86;74.86;101726.69;5018794;28;20030;-74
2022/07/28 02:56:57;;;;;;;15.98;3.67;;;;;;;12.82;75.50;101727.00;5019428;28;20413;-74
2022/07/28 02:59:24;;;;;;;10.48;3.58;;;;;;;12.82;74.45;101717.06;5030071;28;20100;-74
2022/07/28 03:01:49;;;;;;;12.07;3.78;;;;;;;12.80;74.29;101726.22;5028600;28;20408;-74
2022/07/28 03:04:55;;;;;;;7.85;3.00;;;;;;;12.75;75.01;101721.16;5025259;28;20021;-74
2022/07/28 03:07:02;;;;;;;10.13;3.08;;;;;;;12.69;75.22;101718.88;5020908;28;20488;-74
2022/07/28 03:09:28;;;;;;;7.93;3.25;;;;;;;12.66;74.67;101725.34;5011393;28;20124;-74
2022/07/28 03:11:53;;;;;;;11.02;3.10;;;;;;;12.62;74.88;101720.25;5020758;28;20030;-74
2022/07/28 03:14:18;;;;;;;12.05;3.22;;;;;;;12.58;75.67;101716.94;5015343;28;20132;-74
2022/07/28 03:16:44;;;;;;;11.27;3.58;;;;;;;12.55;75.96;101723.38;5017901;28;20037;-74
2022/07/28 03:19:10;;;;;;;9.65;3.38;;;;;;;12.48;74.84;101721.22;5025680;28;20112;-74
2022/07/28 03:21:36;;;;;;;14.52;3.30;;;;;;;12.42;75.26;101719.78;5027599;28;20543;-74
2022/07/28 03:24:02;;;;;;;10.48;3.20;;;;;;;12.39;74.86;101722.69;5015663;28;20030;-74
2022/07/28 03:26:39;;;;;;;10.23;3.15;;;;;;;12.33;75.85;101723.09;5017749;28;20112;-74
2022/07/28 03:29:05;;;;;;;10.75;2.85;;;;;;;12.29;76.13;101721.59;5021629;28;20053;-74
2022/07/28 03:31:32;;;;;;;10.43;3.20;;;;;;;12.28;75.16;101730.63;5029232;28;20047;-74
2022/07/28 03:33:58;;;;;;;9.25;2.97;;;;;;;12.24;75.38;101725.44;5016636;28;20033;-74
2022/07/28 03:36:34;;;;;;;10.52;3.10;;;;;;;12.24;75.51;101728.13;5025171;28;20095;-74
2022/07/28 03:39:02;;;;;;;9.73;3.13;;;;;;;12.20;75.48;101729.31;5028738;28;20590;-74
2022/07/28 03:41:31;;;;;;;10.57;3.03;;;;;;;12.19;75.28;101726.72;5025573;28;20048;-74
2022/07/28 03:43:57;;;;;;;9.88;3.05;;;;;;;12.17;75.25;101728.66;5033777;28;20040;-74
2022/07/28 03:46:24;;;;;;;10.20;2.88;;;;;;;12.13;75.46;101719.91;5030280;28;20084;-74
2022/07/28 03:48:49;;;;;;;11.00;3.15;;;;;;;12.12;75.68;101718.16;5027903;28;20117;-74
2022/07/28 03:51:15;;;;;;;8.75;3.15;;;;;;;12.09;75.28;101726.44;5022219;28;20097;-74
2022/07/28 03:53:40;;;;;;;9.27;2.85;;;;;;;12.06;76.14;101727.53;5031056;28;20038;-74
2022/07/28 03:56:06;;;;;;;8.88;3.20;;;;;;;12.05;75.50;101719.56;5027456;28;20041;-74
2022/07/28 03:58:31;;;;;;;10.73;3.50;;;;;;;12.04;75.56;101723.19;5031544;28;20025;-74
2022/07/28 04:00:57;;;;;;;7.07;2.38;;;;;;;12.01;75.72;101724.25;5027704;28;20076;-74
2022/07/28 04:03:23;;;;;;;11.40;3.67;;;;;;;12.00;75.47;101722.53;5028083;28;20033;-74
2022/07/28 04:05:48;;;;;;;12.10;2.88;;;;;;;11.97;75.19;101721.88;5028841;28;20043;-74
2022/07/28 04:08:13;;;;;;;10.95;3.38;;;;;;;11.97;75.37;101720.03;5028434;28;20433;-74
2022/07/28 04:10:39;;;;;;;11.30;3.65;;;;;;;11.99;76.16;101719.94;5034284;28;20083;-74
2022/07/28 04:13:04;;;;;;;9.82;3.38;;;;;;;11.98;76.68;101719.06;5029665;28;20025;-74
2022/07/28 04:15:31;;;;;;;12.35;3.63;;;;;;;12.00;75.08;101718.97;5024689;28;20504;-74
2022/07/28 04:17:57;;;;;;;10.55;3.10;;;;;;;12.02;76.47;101720.59;5030557;28;20022;-74
2022/07/28 04:20:24;;;;;;;9.77;3.03;;;;;;;12.03;75.81;101721.47;5016015;28;20072;-74
2022/07/28 04:22:50;;;;;;;11.07;3.20;;;;;;;12.04;76.12;101720.50;5028512;28;20034;-74
2022/07/28 04:25:18;;;;;;;11.52;3.28;;;;;;;12.05;76.03;101724.94;5023016;28;20464;-74
2022/07/28 04:27:44;;;;;;;9.70;3.08;;;;;;;12.07;75.26;101721.16;5031708;28;20022;-74
2022/07/28 04:30:12;;;;;;;10.30;3.25;;;;;;;12.11;75.53;101719.16;5030210;28;20036;-74
2022/07/28 04:32:39;;;;;;;10.93;3.40;;;;;;;12.12;76.35;101712.75;5020152;28;20060;-74
2022/07/28 04:35:06;;;;;;;8.05;3.10;;;;;;;12.14;76.19;101713.53;5027768;28;20029;-74
2022/07/28 04:37:32;;;;;;;14.52;3.53;;;;;;;12.17;76.28;101721.44;5022037;28;20036;-74
2022/07/28 04:39:57;;;;;;;11.80;3.60;;;;;;;12.17;76.29;101721.44;5021120;28;20022;-74
2022/07/28 04:42:22;;;;;;;12.85;3.72;;;;;;;12.17;76.25;101718.72;5017800;28;20026;-74
2022/07/28 04:44:47;;;;;;;14.15;3.63;;;;;;;12.19;75.52;101710.53;5017446;28;20030;-74
2022/07/28 04:47:13;;;;;;;13.88;3.13;;;;;;;12.21;76.47;101714.88;5030233;28;20014;-74
2022/07/28 04:49:39;;;;;;;11.68;3.42;;;;;;;12.23;76.07;101712.94;5021153;28;20065;-74
2022/07/28 04:52:05;;;;;;;11.27;3.78;;;;;;;12.27;76.58;101710.03;5030126;28;20473;-74
2022/07/28 04:54:30;;;;;;;13.35;3.58;;;;;;;12.31;75.18;101714.25;5016269;28;20029;-74
2022/07/28 04:56:56;;;;;;;10.30;3.45;;;;;;;12.31;75.94;101711.56;5014697;28;20088;-74
2022/07/28 04:59:21;;;;;;;10.48;3.63;;;;;;;12.33;75.19;101709.59;5030456;28;20013;-74
2022/07/28 05:01:46;;;;;;;11.70;3.70;;;;;;;12.37;75.31;101708.44;5024461;28;20125;-74
2022/07/28 05:04:11;;;;;;;10.88;3.67;;;;;;;12.41;75.55;101709.97;5029009;28;20017;-74
2022/07/28 05:06:37;;;;;;;13.65;3.80;;;;;;;12.42;75.17;101706.31;5018782;28;20481;-74
2022/07/28 05:09:02;;;;;;;12.57;3.85;;;;;;;12.44;75.31;101714.28;5026036;28;20087;-74
2022/07/28 05:11:27;;;;;;;16.73;3.67;;;;;;;12.48;76.06;101715.81;5032588;28;20429;-74
2022/07/28 05:13:53;;;;;;;10.05;3.22;;;;;;;12.52;76.17;101720.03;5030285;28;20040;-74
2022/07/28 05:16:19;;;;;;;12.50;3.55;;;;;;;12.53;75.58;101714.53;5030919;28;20477;-74
2022/07/28 05:18:44;;;;;;;11.68;3.28;;;;;;;12.59;75.15;101718.63;5028994;28;20029;-74
2022/07/28 05:21:09;;;;;;;12.88;3.90;;;;;;;12.63;75.24;101728.25;5022601;28;20505;-74
2022/07/28 05:23:35;;;;;;;14.05;3.90;;;;;;;12.65;74.68;101726.34;5024972;28;20052;-74
2022/07/28 05:26:00;;;;;;;11.63;3.97;;;;;;;12.70;75.53;101728.72;5030625;28;20288;-74
2022/07/28 05:28:25;;;;;;;11.07;3.40;;;;;;;12.76;76.10;101722.88;5030987;28;20405;-74
2022/07/28 05:30:51;;;;;;;11.00;3.47;;;;;;;12.81;75.79;101725.25;5021554;28;20032;-74
2022/07/28 05:33:16;;;;;;;11.52;3.55;;;;;;;12.86;75.16;101721.28;5030591;28;20075;-74
2022/07/28 05:35:43;;;;;;;13.38;4.13;;;;;;;12.94;74.46;101724.31;5027679;28;20102;-74
2022/07/28 05:38:09;;;;;;;12.55;3.58;;;;;;;13.01;75.32;101732.00;5031002;28;20496;-74
2022/07/28 05:40:34;;;;;;;14.82;4.03;;;;;;;13.05;74.71;101728.09;5031970;28;20056;-74
2022/07/28 05:42:59;;;;;;;8.80;3.40;;;;;;;13.11;74.86;101724.97;5026618;28;20121;-74
2022/07/28 05:45:24;;;;;;;11.13;3.88;;;;;;;13.16;74.16;101728.19;5027591;28;20033;-74
2022/07/28 05:47:51;;;;;;;13.20;3.30;;;;;;;13.23;74.66;101721.41;5029679;28;20424;-74
2022/07/28 05:50:19;;;;;;;13.00;4.00;;;;;;;13.33;73.42;101728.88;5028945;28;20029;-74
2022/07/28 05:52:46;;;;;;;12.77;3.88;;;;;;;13.43;73.52;101727.28;5029362;28;20048;-74
2022/07/28 05:55:12;;;;;;;10.98;3.97;;;;;;;13.51;73.49;101724.00;5022725;28;20058;-74
2022/07/28 05:57:38;;;;;;;11.63;3.78;;;;;;;13.56;72.73;101725.41;5018213;28;20084;-72
2022/07/28 06:00:06;;;;;;;14.25;4.38;;;;;;;13.62;73.56;101729.50;5019569;28;20025;-72
2022/07/28 06:02:31;;;;;;;16.33;4.28;;;;;;;13.68;71.78;101725.50;5021285;28;20819;-72
2022/07/28 06:04:56;;;;;;;15.48;4.00;;;;;;;13.75;73.39;101724.94;5019950;28;20113;-72
2022/07/28 06:07:22;;;;;;;13.68;3.83;;;;;;;13.83;73.29;101729.78;5019702;28;20045;-72
2022/07/28 06:09:47;;;;;;;21.45;4.50;;;;;;;13.89;72.49;101729.31;5021138;28;20060;-72
2022/07/28 06:12:12;;;;;;;16.80;4.07;;;;;;;13.96;72.47;101727.03;5026939;28;20029;-72
2022/07/28 06:14:37;;;;;;;12.27;4.10;;;;;;;13.99;71.52;101724.13;5021283;28;20033;-72
2022/07/28 06:17:03;;;;;;;8.48;3.28;;;;;;;14.02;71.26;101715.78;5021291;28;20501;-72
2022/07/28 06:19:28;;;;;;;9.90;3.15;;;;;;;14.09;71.53;101716.19;5016997;28;20037;-71
2022/07/28 06:21:53;;;;;;;11.95;4.00;;;;;;;14.14;73.87;101714.88;5020329;28;20061;-71
2022/07/28 06:24:18;;;;;;;11.02;3.60;;;;;;;14.21;71.98;101726.06;5020318;28;20512;-72
2022/07/28 06:26:44;;;;;;;13.50;3.60;;;;;;;14.27;71.93;101722.91;5021387;28;20895;-72
2022/07/28 06:29:09;;;;;;;18.63;4.18;;;;;;;14.31;71.25;101721.72;5022762;28;20053;-72
2022/07/28 06:31:35;;;;;;;10.00;3.67;;;;;;;14.34;70.82;101724.19;5022734;28;20083;-72
2022/07/28 06:34:00;;;;;;;9.75;3.28;;;;;;;14.37;69.77;101725.78;5019892;28;20370;-71
2022/07/28 06:36:26;;;;;;;15.55;3.33;;;;;;;14.41;69.43;101726.44;5020590;28;20022;-71
2022/07/28 06:38:51;;;;;;;11.10;3.17;;;;;;;14.47;69.93;101717.84;5019168;28;20040;-73
2022/07/28 06:41:16;;;;;;;14.57;3.60;;;;;;;14.53;69.54;101735.47;5019433;28;20469;-73
2022/07/28 06:43:42;;;;;;;7.90;2.80;;;;;;;14.55;68.84;101720.81;5022964;28;20029;-72
2022/07/28 06:46:08;;;;;;;18.70;3.35;;;;;;;14.63;69.64;101726.53;5019112;28;20079;-72
2022/07/28 06:48:36;;;;;;;14.23;3.67;;;;;;;14.67;68.98;101719.03;5022449;28;20034;-72
2022/07/28 06:51:01;;;;;;;10.10;3.15;;;;;;;14.70;68.95;101726.06;5020601;28;20079;-72
2022/07/28 06:53:27;;;;;;;12.90;3.22;;;;;;;14.75;68.73;101723.88;5016738;28;20104;-72
2022/07/28 06:55:52;;;;;;;10.43;3.25;;;;;;;14.82;68.75;101730.56;5019904;28;20029;-72
2022/07/28 06:58:17;;;;;;;10.82;3.35;;;;;;;14.84;68.33;101728.59;5018249;28;20045;-72
2022/07/28 07:00:42;;;;;;;7.13;3.00;;;;;;;14.87;68.01;101733.75;5021837;28;20037;-74
2022/07/28 07:03:08;;;;;;;10.70;3.00;;;;;;;14.89;67.55;101739.94;5024626;28;20041;-75
2022/07/28 07:05:33;;;;;;;16.13;3.58;;;;;;;14.93;67.57;101735.13;5022539;28;20065;-75
2022/07/28 07:07:59;;;;;;;14.38;3.83;;;;;;;14.95;67.38;101734.03;5022219;28;20022;-75
2022/07/28 07:10:24;;;;;;;9.90;3.03;;;;;;;14.96;67.49;101733.03;5022144;28;20095;-75
2022/07/28 07:12:49;;;;;;;12.35;3.63;;;;;;;15.02;68.40;101731.69;5021888;28;20090;-75
2022/07/28 07:15:15;;;;;;;11.30;3.33;;;;;;;15.08;66.92;101733.06;5024234;28;20170;-75
2022/07/28 07:17:41;;;;;;;12.93;3.05;;;;;;;15.18;66.99;101728.66;5022202;28;20087;-74
2022/07/28 07:20:07;;;;;;;6.68;2.92;;;;;;;15.27;66.21;101737.88;5023241;28;20102;-73
2022/07/28 07:22:33;;;;;;;8.38;3.15;;;;;;;15.37;66.72;101730.75;5020230;28;20084;-75
2022/07/28 07:25:19;;;;;;;10.48;3.53;;;;;;;15.47;66.59;101720.06;5022714;28;20030;-75
2022/07/28 07:27:45;;;;;;;11.43;3.20;;;;;;;15.56;67.16;101722.00;5025341;28;20505;-74
2022/07/28 07:30:11;;;;;;;11.40;3.13;;;;;;;15.61;65.98;101721.63;5022493;28;20030;-74
2022/07/28 07:32:37;;;;;;;8.70;3.05;;;;;;;15.69;65.79;101724.59;5023524;28;20426;-74
2022/07/28 07:35:03;;;;;;;9.52;2.92;;;;;;;15.73;65.14;101724.22;5022111;28;20105;-74
2022/07/28 07:37:31;;;;;;;10.43;2.88;;;;;;;15.77;65.86;101723.97;5020097;28;20049;-75
2022/07/28 07:39:57;;;;;;;12.63;3.10;;;;;;;15.82;65.31;101719.06;5014591;28;20057;-75
2022/07/28 07:42:22;;;;;;;10.70;3.17;;;;;;;15.86;64.97;101723.25;5034961;28;20076;-75
2022/07/28 07:44:47;;;;;;;13.88;3.10;;;;;;;15.89;64.56;101713.03;5034195;28;20021;-75
2022/07/28 07:47:13;;;;;;;11.18;3.17;;;;;;;15.94;63.52;101709.06;5028517;28;20029;-75
2022/07/28 07:49:38;;;;;;;11.20;3.22;;;;;;;15.98;63.04;101703.25;5030312;28;20079;-75
2022/07/28 07:52:04;;;;;;;10.13;3.17;;;;;;;16.05;63.90;101714.47;5015158;28;20094;-75
2022/07/28 07:54:29;;;;;;;11.77;3.20;;;;;;;16.13;63.99;101711.13;5033747;28;20434;-75
2022/07/28 07:56:55;;;;;;;10.73;3.00;;;;;;;16.18;63.44;101717.88;5033427;28;20071;-75
2022/07/28 07:59:20;;;;;;;8.80;2.65;;;;;;;16.22;63.60;101707.63;5033429;28;20033;-75
2022/07/28 08:01:49;;;;;;;11.13;2.75;;;;;;;16.27;63.30;101708.13;5033415;28;20124;-75
2022/07/28 08:04:15;;;;;;;10.82;2.67;;;;;;;16.33;63.54;101712.19;5033321;28;20025;-75
2022/07/28 08:06:40;;;;;;;7.57;2.60;;;;;;;16.37;62.86;101709.06;5033568;28;20084;-75
2022/07/28 08:09:05;;;;;;;11.75;3.03;;;;;;;16.44;63.73;101709.41;5015039;28;20096;-75
2022/07/28 08:11:31;;;;;;;13.05;3.30;;;;;;;16.52;64.23;101706.06;5018208;28;20038;-75
2022/07/28 08:13:56;;;;;;;11.07;3.10;;;;;;;16.57;62.92;101710.09;5025642;28;20033;-75
2022/07/28 08:16:21;;;;;;;7.53;2.65;;;;;;;16.59;62.16;101715.41;5029624;28;20032;-75
2022/07/28 08:18:47;;;;;;;13.30;3.08;;;;;;;16.63;61.41;101710.56;5031137;28;20028;-75
2022/07/28 08:21:13;;;;;;;10.13;2.92;;;;;;;16.66;62.87;101710.28;5025821;28;20018;-75
2022/07/28 08:23:38;;;;;;;8.68;2.63;;;;;;;16.70;61.82;101704.47;5033494;28;20109;-75
2022/07/28 08:26:04;;;;;;;11.65;2.88;;;;;;;16.71;61.93;101706.19;5033093;28;20108;-75
2022/07/28 08:28:30;;;;;;;13.38;3.03;;;;;;;16.75;61.65;101702.22;5033972;28;20107;-75
2022/07/28 08:30:55;;;;;;;9.40;2.38;;;;;;;16.82;63.21;101705.25;5030014;28;20061;-75
2022/07/28 08:33:20;;;;;;;9.57;2.72;;;;;;;16.90;61.45;101707.38;5032943;28;20478;-75
2022/07/28 08:35:47;;;;;;;8.88;2.70;;;;;;;16.94;60.71;101704.25;5033350;28;20053;-75
2022/07/28 08:38:13;;;;;;;11.98;2.80;;;;;;;16.98;61.77;101709.41;5034107;28;20026;-75
2022/07/28 08:40:40;;;;;;;6.00;2.55;;;;;;;17.02;60.98;101703.56;5029429;28;20022;-75
2022/07/28 08:43:19;;;;;;;10.52;2.70;;;;;;;17.04;61.39;101707.03;5012867;28;20038;-75
2022/07/28 08:45:47;;;;;;;6.78;2.55;;;;;;;17.07;60.27;101701.31;5012968;28;20571;-75
2022/07/28 08:48:13;;;;;;;8.07;2.65;;;;;;;17.13;60.47;101694.50;5014011;28;20028;-75
2022/07/28 08:50:40;;;;;;;8.13;2.83;;;;;;;17.20;60.46;101689.38;5016674;28;20036;-75
2022/07/28 08:53:06;;;;;;;12.13;3.03;;;;;;;17.26;61.41;101695.13;5033277;28;20564;-72
2022/07/28 08:55:33;;;;;;;9.80;2.80;;;;;;;17.32;60.68;101701.88;5034350;28;20021;-71
2022/07/28 08:57:59;;;;;;;10.10;2.80;;;;;;;17.34;60.63;101697.16;5032162;28;20037;-71
2022/07/28 09:00:25;;;;;;;10.57;2.85;;;;;;;17.39;60.12;101692.16;5029315;28;20394;-71
2022/07/28 09:02:51;;;;;;;15.80;3.55;;;;;;;17.42;60.61;101700.06;5013714;28;20049;-71
2022/07/28 09:05:18;;;;;;;9.75;2.92;;;;;;;17.48;60.81;101687.75;5012475;28;20434;-71
2022/07/28 09:07:48;;;;;;;11.05;2.92;;;;;;;17.52;59.00;101683.78;5020091;28;20025;-71
2022/07/28 09:10:14;;;;;;;10.40;2.72;;;;;;;17.55;60.28;101666.34;5029855;28;20087;-72
2022/07/28 09:12:39;;;;;;;13.25;2.85;;;;;;;17.61;61.31;101668.50;5022827;28;20029;-72
2022/07/28 09:15:07;;;;;;;11.15;2.88;;;;;;;17.69;60.84;101656.91;5045562;28;20496;-72
2022/07/28 09:17:33;;;;;;;8.88;3.03;;;;;;;17.75;60.70;101661.81;5028461;28;20033;-72
2022/07/28 09:19:59;;;;;;;8.57;2.72;;;;;;;17.79;61.18;101658.69;5030487;28;20038;-72
2022/07/28 09:22:25;;;;;;;6.15;2.58;;;;;;;17.84;60.95;101660.13;5031450;28;20033;-72
2022/07/28 09:24:50;;;;;;;8.70;2.42;;;;;;;17.91;59.12;101662.16;5031602;28;20131;-72
2022/07/28 09:27:15;;;;;;;11.27;2.60;;;;;;;18.00;58.66;101663.19;5031371;28;20025;-72
2022/07/28 09:29:45;;;;;;;10.05;2.92;;;;;;;18.02;59.20;101652.16;5031618;28;20382;-72
2022/07/28 09:32:13;;;;;;;11.52;3.05;;;;;;;18.12;60.36;101647.59;5030798;28;20116;-72
2022/07/28 09:34:40;;;;;;;8.30;2.65;;;;;;;18.13;59.07;101642.00;5030793;28;20698;-72
2022/07/28 09:37:07;;;;;;;7.22;2.58;;;;;;;18.21;59.33;101637.72;5028907;28;20178;-72
2022/07/28 09:39:35;;;;;;;8.25;3.03;;;;;;;18.24;58.25;101640.13;5031863;28;20037;-72
2022/07/28 09:42:01;;;;;;;5.72;2.30;;;;;;;18.26;59.88;101633.56;5031213;28;20503;-72
2022/07/28 09:44:27;;;;;;;10.45;2.65;;;;;;;18.35;58.75;101640.00;5028553;28;20021;-72
2022/07/28 09:46:54;;;;;;;9.45;2.75;;;;;;;18.38;57.86;101641.59;5030998;28;20028;-72
2022/07/28 09:49:20;;;;;;;6.88;2.83;;;;;;;18.43;58.10;101633.81;5030849;28;20509;-72
2022/07/28 09:52:00;;;;;;;7.68;2.70;;;;;;;18.48;58.99;101645.16;5028928;28;20029;-72
2022/07/28 09:54:25;;;;;;;9.80;2.63;;;;;;;18.56;57.16;101639.81;5029728;28;20022;-72
2022/07/28 09:56:50;;;;;;;8.55;2.65;;;;;;;18.58;57.07;101636.94;5028746;28;20044;-72
2022/07/28 09:59:17;;;;;;;14.90;3.55;;;;;;;18.63;56.95;101638.22;5030723;28;20041;-72
2022/07/28 10:01:55;;;;;;;5.80;2.67;;;;;;;18.70;57.07;101633.06;5028002;28;20053;-72
2022/07/28 10:04:37;;;;;;;7.20;2.33;;;;;;;18.76;58.73;101629.75;5026498;28;20053;-72
2022/07/28 10:07:12;;;;;;;8.20;2.58;;;;;;;18.82;56.59;101633.75;5041424;28;20037;-72
2022/07/28 10:09:39;;;;;;;7.38;2.65;;;;;;;18.84;55.67;101638.06;5028809;28;20296;-73
2022/07/28 10:12:13;;;;;;;8.27;2.65;;;;;;;18.89;55.37;101637.66;5020832;28;20023;-73
2022/07/28 10:14:39;;;;;;;6.03;2.50;;;;;;;18.88;56.06;101641.38;5024170;28;20120;-73
2022/07/28 10:17:04;;;;;;;9.07;2.65;;;;;;;18.89;57.93;101642.22;5025608;28;20131;-73
2022/07/28 10:19:29;;;;;;;9.57;2.60;;;;;;;18.93;56.82;101624.56;5028553;28;20029;-73
2022/07/28 10:21:56;;;;;;;6.43;2.58;;;;;;;18.96;55.11;101632.44;5030075;28;20021;-73
2022/07/28 10:24:23;;;;;;;6.85;2.25;;;;;;;18.99;54.65;101623.97;5030359;28;20108;-73
2022/07/28 10:26:51;;;;;;;9.07;2.13;;;;;;;19.00;56.55;101617.53;5030429;28;20090;-73
2022/07/28 10:29:20;;;;;;;7.43;2.15;;;;;;;19.06;53.01;101630.53;5029994;28;20045;-73
2022/07/28 10:31:53;;;;;;;10.93;2.95;;;;;;;19.12;53.63;101624.53;5028394;28;20029;-72
2022/07/28 10:34:21;;;;;;;9.20;2.78;;;;;;;19.15;54.11;101615.16;5034272;28;20495;-72
2022/07/28 10:36:48;;;;;;;8.98;2.67;;;;;;;19.20;52.87;101621.88;5029144;28;20393;-72
2022/07/28 10:39:17;;;;;;;6.45;2.50;;;;;;;19.24;53.15;101617.00;5025765;28;20029;-72
2022/07/28 10:41:44;;;;;;;6.22;2.72;;;;;;;19.28;53.47;101609.38;5026548;28;20035;-72
2022/07/28 10:44:13;;;;;;;5.32;2.08;;;;;;;19.32;53.55;101618.97;5028789;28;20086;-72
2022/07/28 10:46:41;;;;;;;8.48;2.13;;;;;;;19.33;55.82;101609.78;5028810;28;20028;-72
2022/07/28 10:49:08;;;;;;;6.63;2.00;;;;;;;19.40;54.35;101616.34;5028712;28;20056;-72
2022/07/28 10:51:33;;;;;;;8.55;2.50;;;;;;;19.42;52.45;101603.41;5028061;28;20033;-72
2022/07/28 10:54:12;;;;;;;9.07;2.20;;;;;;;19.49;53.07;101609.13;5027633;28;20401;-72
2022/07/28 10:56:51;;;;;;;7.03;2.33;;;;;;;19.54;54.92;101620.41;5027411;28;20029;-72
2022/07/28 10:59:28;;;;;;;6.70;2.50;;;;;;;19.56;54.84;101605.63;5032738;28;20087;-72
2022/07/28 11:01:53;;;;;;;8.93;2.15;;;;;;;19.63;52.47;101605.00;5028794;28;20033;-72
2022/07/28 11:04:51;;;;;;;9.20;2.47;;;;;;;19.63;55.39;101600.41;5029932;28;20108;-72
2022/07/28 11:07:17;;;;;;;6.60;2.38;;;;;;;19.66;51.97;101610.16;5036818;28;20524;-72
2022/07/28 11:09:46;;;;;;;7.60;2.50;;;;;;;19.68;52.19;101598.09;5033575;28;20026;-72
2022/07/28 11:12:14;;;;;;;3.47;1.93;;;;;;;19.69;55.37;101598.94;5029976;28;20029;-72
2022/07/28 11:14:41;;;;;;;9.27;2.65;;;;;;;19.76;53.59;101600.03;5031293;28;20060;-73
2022/07/28 11:17:06;;;;;;;4.28;1.90;;;;;;;19.79;53.80;101586.13;5028637;28;20032;-72
2022/07/28 11:19:43;;;;;;;5.90;2.10;;;;;;;19.84;52.74;101586.53;5036844;28;20037;-73
2022/07/28 11:22:15;;;;;;;11.52;2.90;;;;;;;19.90;51.06;101582.31;5026740;28;20292;-73
2022/07/28 11:24:55;;;;;;;3.72;2.28;;;;;;;19.92;51.52;101579.44;5028742;28;20056;-72
2022/07/28 11:27:39;;;;;;;9.00;3.15;;;;;;;19.94;50.92;101585.59;5031146;28;20033;-72